Time;durP1;ratioP1;P1;durP2;ratioP2;P2;SDS_P1;SDS_P2;PMS_P1;PMS_P2;Temp;Humidity;BMP_temperature;BMP_pressure;BME280_temperature;BME280_humidity;BME280_pressure;Samples;Min_cycle;Max_cycle;Signal;HPM_P1;HPM_P2
2023/04/21 00:03:02;;;;;;;2.65;1.48;;;5.10;99.90;;;;;;20734498;28;20537;-55
2023/04/21 00:13:04;;;;;;;1.80;1.20;;;5.00;99.90;;;;;;20739335;28;20565;-56
2023/04/21 00:23:06;;;;;;;2.55;1.80;;;5.00;99.90;;;;;;20740302;28;20435;-49
2023/04/21 00:33:07;;;;;;;4.28;2.20;;;5.00;99.90;;;;;;20738729;28;20041;-51
2023/04/21 00:43:09;;;;;;;3.92;2.28;;;4.90;99.90;;;;;;20738536;28;20038;-47
2023/04/21 00:53:13;;;;;;;6.07;2.28;;;5.00;99.90;;;;;;20736693;28;20045;-62
2023/04/21 01:03:15;;;;;;;3.45;2.20;;;4.90;99.90;;;;;;20738739;28;20486;-60
2023/04/21 01:13:20;;;;;;;5.22;2.88;;;4.90;99.90;;;;;;20740252;28;20041;-47
2023/04/21 01:23:22;;;;;;;4.20;2.67;;;4.90;99.90;;;;;;20746087;28;20038;-49
2023/04/21 01:33:26;;;;;;;4.00;2.58;;;4.90;99.90;;;;;;20749652;28;20189;-60
2023/04/21 01:43:27;;;;;;;4.95;2.80;;;4.90;99.90;;;;;;20750124;28;20127;-49
2023/04/21 01:53:29;;;;;;;3.50;2.22;;;4.90;99.90;;;;;;20750517;28;20081;-50
2023/04/21 02:03:30;;;;;;;5.15;2.67;;;4.80;99.90;;;;;;20748344;28;20104;-47
2023/04/21 02:13:32;;;;;;;3.92;2.55;;;4.90;99.90;;;;;;20747713;28;20435;-60
2023/04/21 02:23:34;;;;;;;3.78;2.42;;;4.90;99.90;;;;;;20747259;28;20064;-48
2023/04/21 02:33:35;;;;;;;4.78;2.28;;;4.80;99.90;;;;;;20745022;28;20030;-63
2023/04/21 02:43:37;;;;;;;5.00;2.50;;;4.80;99.90;;;;;;20744753;28;20041;-45
2023/04/21 02:53:40;;;;;;;4.40;2.40;;;4.50;99.90;;;;;;20743458;28;20034;-48
2023/04/21 03:03:41;;;;;;;5.70;2.95;;;4.30;99.90;;;;;;20742834;28;20391;-48
2023/04/21 03:13:45;;;;;;;5.68;3.47;;;4.30;99.90;;;;;;20742855;28;20050;-48
2023/04/21 03:23:47;;;;;;;7.10;3.90;;;4.40;99.90;;;;;;20742696;28;20365;-52
2023/04/21 03:33:49;;;;;;;4.18;2.70;;;4.60;99.90;;;;;;20740157;28;20305;-62
2023/04/21 03:43:51;;;;;;;5.95;3.13;;;4.60;99.90;;;;;;20739442;28;20083;-48
2023/04/21 03:53:53;;;;;;;4.90;3.03;;;4.70;99.90;;;;;;20740832;28;20042;-63
2023/04/21 04:03:55;;;;;;;6.25;3.08;;;4.70;99.90;;;;;;20739899;28;20029;-62
2023/04/21 04:13:57;;;;;;;4.43;2.53;;;4.80;99.90;;;;;;20739388;28;20041;-62
2023/04/21 04:23:59;;;;;;;4.95;2.85;;;4.80;99.90;;;;;;20739676;28;20026;-47
2023/04/21 04:34:00;;;;;;;4.88;2.38;;;4.90;99.90;;;;;;20739145;28;20045;-62
2023/04/21 04:44:03;;;;;;;7.43;2.58;;;4.80;99.90;;;;;;20738503;28;20041;-63
2023/04/21 04:54:05;;;;;;;5.00;2.97;;;4.80;99.90;;;;;;20740333;28;20118;-62
2023/04/21 05:04:07;;;;;;;5.07;2.80;;;4.80;99.90;;;;;;20753084;28;20026;-49
2023/04/21 05:14:08;;;;;;;5.30;3.05;;;4.90;99.90;;;;;;20752141;28;20487;-62
2023/04/21 05:24:13;;;;;;;6.60;3.80;;;5.00;99.90;;;;;;20753115;28;20049;-48
2023/04/21 05:34:14;;;;;;;5.18;3.00;;;5.00;99.90;;;;;;20750939;28;20033;-61
2023/04/21 05:44:16;;;;;;;4.38;2.95;;;5.20;99.90;;;;;;20750109;28;20030;-51
2023/04/21 05:54:18;;;;;;;4.47;3.03;;;5.30;99.90;;;;;;20749722;28;20042;-51
2023/04/21 06:04:21;;;;;;;3.65;2.30;;;5.40;99.90;;;;;;20745223;28;20554;-61
2023/04/21 06:14:22;;;;;;;3.90;2.75;;;5.50;99.90;;;;;;20747392;28;20038;-47
2023/04/21 06:24:24;;;;;;;3.90;2.65;;;5.60;99.90;;;;;;20747116;28;20057;-50
2023/04/21 06:34:26;;;;;;;4.35;2.58;;;5.60;99.90;;;;;;20746019;28;20041;-51
2023/04/21 06:44:28;;;;;;;3.90;2.20;;;5.70;99.90;;;;;;20743413;28;20096;-60
2023/04/21 06:54:29;;;;;;;3.70;2.00;;;5.90;99.90;;;;;;20744901;28;20457;-50
2023/04/21 07:04:31;;;;;;;2.95;1.98;;;6.40;99.90;;;;;;20711871;28;20092;-48
2023/04/21 07:14:32;;;;;;;2.55;1.85;;;6.80;99.90;;;;;;20741606;28;20103;-50
2023/04/21 07:24:34;;;;;;;1.63;1.30;;;6.90;99.90;;;;;;20743228;28;20037;-50
2023/04/21 07:34:35;;;;;;;1.88;1.42;;;7.10;99.90;;;;;;20741761;28;20042;-51
2023/04/21 07:44:37;;;;;;;2.10;1.60;;;7.30;99.90;;;;;;20736420;28;20383;-52
2023/04/21 07:54:39;;;;;;;1.90;1.50;;;7.70;99.90;;;;;;20740080;28;20037;-52
2023/04/21 08:04:40;;;;;;;2.50;1.60;;;8.30;99.90;;;;;;20740242;28;20539;-53
2023/04/21 08:14:42;;;;;;;1.90;1.60;;;8.80;99.90;;;;;;20737101;28;20125;-52
2023/04/21 08:25:49;;;;;;;2.40;1.80;;;9.10;99.90;;;;;;20739342;28;20041;-50
2023/04/21 08:35:51;;;;;;;3.67;1.90;;;9.70;99.90;;;;;;20733592;28;20046;-51
2023/04/21 08:45:53;;;;;;;2.63;1.63;;;10.20;99.90;;;;;;20753856;28;20034;-49
2023/04/21 08:55:55;;;;;;;2.55;1.80;;;10.30;99.90;;;;;;20752205;28;20479;-52
2023/04/21 09:06:01;;;;;;;2.70;1.90;;;10.40;99.90;;;;;;20750310;28;20018;-61
2023/04/21 09:16:14;;;;;;;2.67;1.95;;;10.80;99.90;;;;;;20751284;28;20041;-52
2023/04/21 09:26:17;;;;;;;2.75;1.85;;;11.30;99.90;;;;;;20750824;28;20030;-56
2023/04/21 09:36:25;;;;;;;2.35;1.85;;;11.00;99.90;;;;;;20749906;28;20034;-51
2023/04/21 09:46:28;;;;;;;2.58;2.13;;;11.10;99.90;;;;;;20748688;28;20030;-62
2023/04/21 09:56:34;;;;;;;2.08;1.75;;;12.10;99.90;;;;;;20748868;28;20030;-51
2023/04/21 10:06:36;;;;;;;2.33;1.90;;;14.40;99.90;;;;;;20746096;28;20025;-63
2023/04/21 10:16:38;;;;;;;3.22;1.95;;;13.30;99.90;;;;;;20745172;28;20046;-52
2023/04/21 10:26:39;;;;;;;3.13;2.42;;;11.50;99.90;;;;;;20746194;28;20487;-62
2023/04/21 10:36:47;;;;;;;4.53;3.40;;;10.30;99.90;;;;;;20745808;28;20092;-51
2023/04/21 10:46:51;;;;;;;4.15;3.28;;;9.40;99.90;;;;;;20744296;28;20030;-51
2023/04/21 10:56:53;;;;;;;5.45;3.83;;;8.70;99.90;;;;;;20742615;28;20037;-52
2023/04/21 11:07:20;;;;;;;5.97;3.78;;;8.00;99.90;;;;;;20740993;28;20042;-61
2023/04/21 11:17:22;;;;;;;4.95;3.70;;;7.50;99.90;;;;;;20742468;28;20499;-48
2023/04/21 11:27:29;;;;;;;6.97;3.58;;;7.30;99.90;;;;;;20741926;28;20103;-52
2023/04/21 11:37:31;;;;;;;2.50;2.00;;;7.20;99.90;;;;;;20740881;28;20077;-61
2023/04/21 11:47:33;;;;;;;3.88;1.90;;;7.30;99.90;;;;;;20739770;28;20029;-61
2023/04/21 11:57:35;;;;;;;2.00;1.58;;;7.20;99.90;;;;;;20740617;28;20042;-60
2023/04/21 12:07:37;;;;;;;2.10;1.23;;;7.70;99.90;;;;;;20779395;28;20030;-51
2023/04/21 12:17:50;;;;;;;1.50;1.20;;;9.20;99.90;;;;;;20738131;28;20096;-53
2023/04/21 12:27:56;;;;;;;1.83;1.42;;;10.00;99.90;;;;;;20736785;28;20053;-61
2023/04/21 12:37:58;;;;;;;2.00;1.60;;;10.40;99.90;;;;;;20737517;28;20037;-62
2023/04/21 12:48:00;;;;;;;2.35;1.38;;;11.40;99.90;;;;;;20737376;28;20034;-52
2023/04/21 12:58:02;;;;;;;2.38;1.48;;;11.70;99.90;;;;;;20735709;28;20157;-55
2023/04/21 13:08:03;;;;;;;2.08;1.45;;;11.00;99.90;;;;;;20733560;28;20537;-56
2023/04/21 13:18:05;;;;;;;1.75;1.50;;;10.50;99.90;;;;;;20743508;28;20042;-60
2023/04/21 13:28:07;;;;;;;3.50;2.35;;;10.10;99.90;;;;;;20750700;28;20503;-60
2023/04/21 13:38:08;;;;;;;2.08;1.60;;;9.00;99.90;;;;;;20749412;28;20042;-55
2023/04/21 13:48:10;;;;;;;1.67;1.40;;;8.40;99.90;;;;;;20749433;28;20026;-61
2023/04/21 13:58:14;;;;;;;1.38;1.10;;;8.10;99.90;;;;;;20748467;28;20483;-51
2023/04/21 14:08:16;;;;;;;1.13;0.73;;;8.20;99.90;;;;;;20745511;28;20025;-62
2023/04/21 14:18:18;;;;;;;1.40;0.90;;;8.70;99.90;;;;;;20746241;28;20050;-48
2023/04/21 14:28:19;;;;;;;0.98;0.68;;;9.30;99.90;;;;;;20746378;28;20033;-48
2023/04/21 14:38:21;;;;;;;1.30;0.90;;;10.30;99.90;;;;;;20745020;28;20037;-50
2023/04/21 14:48:23;;;;;;;1.20;0.80;;;12.40;99.90;;;;;;20746027;28;20033;-51
2023/04/21 14:58:24;;;;;;;1.00;0.70;;;13.70;99.90;;;;;;20744035;28;20088;-64
2023/04/21 15:08:26;;;;;;;0.65;0.60;;;14.50;99.90;;;;;;20743852;28;20096;-48
2023/04/21 15:18:28;;;;;;;0.93;0.85;;;13.90;99.90;;;;;;20741637;28;20572;-52
2023/04/21 15:28:31;;;;;;;1.20;1.10;;;13.60;99.90;;;;;;20741498;28;20034;-52
2023/04/21 15:38:32;;;;;;;1.13;1.00;;;13.00;99.90;;;;;;20740344;28;20038;-51
2023/04/21 15:48:34;;;;;;;1.70;0.90;;;12.50;99.90;;;;;;20740152;28;20037;-62
2023/04/21 15:58:36;;;;;;;1.00;0.80;;;11.80;99.90;;;;;;20739378;28;20080;-62
2023/04/21 16:08:38;;;;;;;2.65;0.90;;;11.30;99.90;;;;;;20736288;28;20046;-57
2023/04/21 16:18:39;;;;;;;1.17;0.98;;;11.10;99.90;;;;;;20738970;28;20049;-53
2023/04/21 16:28:41;;;;;;;1.60;1.40;;;10.60;99.90;;;;;;20737904;28;20033;-62
2023/04/21 16:38:42;;;;;;;1.10;1.00;;;10.40;99.90;;;;;;20738106;28;20037;-62
2023/04/21 16:48:44;;;;;;;1.52;1.08;;;10.00;99.90;;;;;;20737486;28;20370;-52
2023/04/21 16:58:46;;;;;;;1.58;1.00;;;9.50;99.90;;;;;;20752786;28;20049;-61
2023/04/21 17:08:48;;;;;;;2.20;1.65;;;8.80;99.90;;;;;;20753430;28;20092;-58
2023/04/21 17:18:50;;;;;;;2.05;1.40;;;8.30;99.90;;;;;;20751284;28;20038;-61
2023/04/21 17:28:51;;;;;;;1.67;1.20;;;7.60;99.90;;;;;;20750660;28;20096;-60
2023/04/21 17:38:54;;;;;;;2.05;1.67;;;7.10;99.90;;;;;;20704787;28;20494;-56
2023/04/21 17:48:56;;;;;;;3.88;1.88;;;6.60;99.90;;;;;;20747680;28;20100;-54
2023/04/21 17:58:57;;;;;;;2.63;1.60;;;6.30;99.90;;;;;;20747497;28;20030;-55
2023/04/21 18:08:59;;;;;;;2.55;1.83;;;5.90;99.90;;;;;;20747900;28;20041;-55
2023/04/21 18:19:01;;;;;;;3.40;1.83;;;5.60;99.90;;;;;;20746896;28;20046;-58
2023/04/21 18:29:03;;;;;;;3.17;2.17;;;5.40;99.90;;;;;;20745909;28;20470;-58
2023/04/21 18:39:05;;;;;;;4.03;2.50;;;5.20;99.90;;;;;;20771972;28;20026;-60
2023/04/21 18:49:07;;;;;;;4.15;2.75;;;4.90;99.90;;;;;;20744253;28;20033;-54
2023/04/21 18:59:08;;;;;;;4.93;2.70;;;4.70;99.90;;;;;;20743589;28;20037;-55
2023/04/21 19:09:10;;;;;;;3.88;2.50;;;4.60;99.90;;;;;;20740233;28;20391;-59
2023/04/21 19:19:12;;;;;;;4.90;2.90;;;4.60;99.90;;;;;;20733329;28;20045;-56
2023/04/21 19:29:14;;;;;;;4.95;3.50;;;4.50;99.90;;;;;;20741274;28;20030;-59
2023/04/21 19:39:15;;;;;;;5.47;3.63;;;4.50;99.90;;;;;;20739434;28;20030;-56
2023/04/21 19:49:17;;;;;;;7.20;4.68;;;4.50;99.90;;;;;;20740131;28;20030;-54
2023/04/21 19:59:19;;;;;;;8.43;4.25;;;4.50;99.90;;;;;;20739273;28;20032;-53
2023/04/21 20:09:20;;;;;;;8.07;5.15;;;4.40;99.90;;;;;;20737890;28;20021;-55
2023/04/21 20:19:25;;;;;;;9.40;6.15;;;4.40;99.90;;;;;;20738866;28;20407;-52
2023/04/21 20:29:27;;;;;;;9.10;5.75;;;4.40;99.90;;;;;;20750622;28;20044;-53
2023/04/21 20:39:29;;;;;;;8.63;5.38;;;4.50;99.90;;;;;;20754728;28;20103;-54
2023/04/21 20:49:30;;;;;;;9.48;5.30;;;4.40;99.90;;;;;;20753662;28;20036;-53
2023/04/21 20:59:32;;;;;;;8.93;5.60;;;4.40;99.90;;;;;;20751254;28;20030;-53
2023/04/21 21:09:34;;;;;;;11.25;5.63;;;4.40;99.90;;;;;;20751073;28;20483;-59
2023/04/21 21:19:35;;;;;;;7.80;5.22;;;4.40;99.90;;;;;;20733799;28;20050;-54
2023/04/21 21:29:37;;;;;;;9.70;5.80;;;4.40;99.90;;;;;;20750657;28;20041;-52
2023/04/21 21:39:39;;;;;;;15.45;6.57;;;4.30;99.90;;;;;;20749728;28;20045;-58
2023/04/21 21:49:40;;;;;;;10.27;6.25;;;4.20;99.90;;;;;;20748913;28;20820;-59
2023/04/21 21:59:42;;;;;;;14.05;5.13;;;4.20;99.90;;;;;;20748297;28;20026;-49
2023/04/21 22:09:44;;;;;;;7.15;4.60;;;4.00;99.90;;;;;;20747660;28;20045;-59
2023/04/21 22:19:46;;;;;;;9.60;6.13;;;3.80;99.90;;;;;;20746576;28;20100;-51
2023/04/21 22:29:47;;;;;;;13.30;6.22;;;3.70;99.90;;;;;;20745967;28;20092;-53
2023/04/21 22:39:49;;;;;;;5.75;3.80;;;3.70;99.90;;;;;;20746094;28;20037;-59
2023/04/21 22:49:52;;;;;;;5.72;3.20;;;3.70;99.90;;;;;;20744208;28;20030;-53
2023/04/21 22:59:54;;;;;;;4.95;3.03;;;3.80;99.90;;;;;;20743754;28;20038;-52
2023/04/21 23:09:55;;;;;;;5.15;2.85;;;3.80;99.90;;;;;;20743054;28;20038;-52
2023/04/21 23:19:57;;;;;;;4.38;2.90;;;3.90;99.90;;;;;;20742302;28;20404;-59
2023/04/21 23:29:58;;;;;;;5.38;3.67;;;4.00;99.90;;;;;;20741398;28;20037;-52
2023/04/21 23:40:00;;;;;;;6.38;3.28;;;3.90;99.90;;;;;;20741185;28;20021;-59
2023/04/21 23:50:02;;;;;;;3.97;2.40;;;3.80;99.90;;;;;;20740511;28;20137;-52
